createdAt,value
2019-03-26T00:00:02.307Z,1.53
2019-03-26T00:02:28.678Z,2.10
2019-03-26T00:04:55.031Z,2.30
2019-03-26T00:07:21.644Z,2.17
2019-03-26T00:09:48.011Z,2.40
2019-03-26T00:12:14.415Z,2.10
2019-03-26T00:14:44.030Z,2.10
2019-03-26T00:17:10.501Z,2.37
2019-03-26T00:19:37.061Z,2.20
2019-03-26T00:22:03.612Z,2.30
2019-03-26T00:24:29.963Z,2.30
2019-03-26T00:26:56.681Z,2.40
2019-03-26T00:29:23.306Z,2.40
2019-03-26T00:31:49.744Z,2.20
2019-03-26T00:34:19.401Z,2.30
2019-03-26T00:36:44.675Z,2.00
2019-03-26T00:39:11.043Z,2.33
2019-03-26T00:41:37.500Z,2.10
2019-03-26T00:44:03.982Z,2.33
2019-03-26T00:46:30.367Z,2.50
2019-03-26T00:48:56.831Z,2.30
2019-03-26T00:51:23.183Z,2.37
2019-03-26T00:53:49.659Z,3.23
2019-03-26T00:56:16.008Z,3.73
2019-03-26T00:58:42.405Z,3.70
2019-03-26T01:01:08.856Z,3.40
2019-03-26T01:03:35.488Z,3.67
2019-03-26T01:06:01.975Z,3.63
2019-03-26T01:08:28.599Z,3.43
2019-03-26T01:10:55.058Z,3.77
2019-03-26T01:13:21.629Z,3.60
2019-03-26T01:15:48.115Z,4.00
2019-03-26T01:18:14.491Z,3.67
2019-03-26T01:20:40.832Z,3.53
2019-03-26T01:23:07.302Z,3.43
2019-03-26T01:25:33.747Z,3.50
2019-03-26T01:28:00.203Z,3.60
2019-03-26T01:30:26.576Z,4.20
2019-03-26T01:32:52.974Z,3.23
2019-03-26T01:35:19.447Z,3.43
2019-03-26T01:37:45.929Z,3.10
2019-03-26T01:40:12.394Z,2.90
2019-03-26T01:42:38.735Z,2.90
2019-03-26T01:45:05.711Z,3.13
2019-03-26T01:47:32.272Z,2.90
2019-03-26T01:49:58.635Z,3.93
2019-03-26T01:52:24.979Z,3.73
2019-03-26T01:54:51.488Z,3.67
2019-03-26T01:57:17.932Z,3.20
2019-03-26T01:59:44.398Z,4.10
2019-03-26T02:02:10.748Z,3.50
2019-03-26T02:04:37.325Z,3.53
2019-03-26T02:07:03.693Z,3.47
2019-03-26T02:09:30.155Z,3.40
2019-03-26T02:11:56.601Z,3.80
2019-03-26T02:14:23.072Z,3.47
2019-03-26T02:16:49.448Z,3.67
2019-03-26T02:19:15.963Z,3.87
2019-03-26T02:21:42.306Z,3.60
2019-03-26T02:24:08.783Z,3.33
2019-03-26T02:26:35.134Z,3.87
2019-03-26T02:29:01.739Z,3.40
2019-03-26T02:31:28.102Z,3.77
2019-03-26T02:33:54.444Z,3.80
2019-03-26T02:36:20.918Z,3.50
2019-03-26T02:38:47.373Z,3.67
2019-03-26T02:41:13.750Z,4.20
2019-03-26T02:43:40.104Z,4.10
2019-03-26T02:46:06.688Z,4.23
2019-03-26T02:48:33.154Z,4.17
2019-03-26T02:50:59.607Z,4.80
2019-03-26T02:53:25.979Z,4.10
2019-03-26T02:55:52.457Z,4.40
2019-03-26T02:58:19.004Z,4.50
2019-03-26T03:00:45.445Z,4.83
2019-03-26T03:03:11.969Z,4.80
2019-03-26T03:05:38.561Z,4.57
2019-03-26T03:08:05.004Z,5.80
2019-03-26T03:10:31.497Z,4.53
2019-03-26T03:12:57.949Z,5.43
2019-03-26T03:15:24.465Z,4.60
2019-03-26T03:17:50.833Z,4.93
2019-03-26T03:20:17.209Z,5.47
2019-03-26T03:22:43.776Z,5.50
2019-03-26T03:25:10.251Z,5.50
2019-03-26T03:27:36.595Z,5.37
2019-03-26T03:30:05.019Z,5.47
2019-03-26T03:32:31.602Z,5.40
2019-03-26T03:35:01.074Z,5.40
2019-03-26T03:37:27.464Z,4.90
2019-03-26T03:39:53.943Z,4.93
2019-03-26T03:42:20.504Z,4.47
2019-03-26T03:44:46.889Z,5.13
2019-03-26T03:47:15.269Z,4.97
2019-03-26T03:49:42.226Z,5.13
2019-03-26T03:52:10.613Z,5.20
2019-03-26T03:54:37.967Z,5.37
2019-03-26T03:57:04.535Z,5.97
2019-03-26T03:59:30.883Z,4.73
2019-03-26T04:01:57.270Z,5.50
2019-03-26T04:04:23.822Z,5.70
2019-03-26T04:06:53.590Z,5.47
2019-03-26T04:09:20.191Z,5.50
2019-03-26T04:11:46.709Z,4.80
2019-03-26T04:14:13.264Z,5.27
2019-03-26T04:16:39.761Z,5.50
2019-03-26T04:19:06.148Z,4.97
2019-03-26T04:21:32.520Z,5.53
2019-03-26T04:23:58.967Z,5.23
2019-03-26T04:26:25.441Z,5.60
2019-03-26T04:28:51.894Z,6.17
2019-03-26T04:31:18.476Z,5.97
2019-03-26T04:33:45.035Z,6.20
2019-03-26T04:36:24.885Z,6.43
2019-03-26T04:38:39.959Z,7.43
2019-03-26T04:41:06.522Z,7.00
2019-03-26T04:43:32.991Z,6.53
2019-03-26T04:45:59.435Z,6.73
2019-03-26T04:48:25.922Z,7.10
2019-03-26T04:50:52.418Z,6.80
2019-03-26T04:53:19.056Z,7.33
2019-03-26T04:55:45.512Z,7.10
2019-03-26T04:58:12.103Z,7.07
2019-03-26T05:00:38.551Z,7.00
2019-03-26T05:03:05.036Z,6.93
2019-03-26T05:05:31.586Z,7.77
2019-03-26T05:07:58.060Z,7.47
2019-03-26T05:10:24.516Z,7.43
2019-03-26T05:12:50.980Z,7.17
2019-03-26T05:15:17.366Z,7.10
2019-03-26T05:17:43.739Z,6.60
2019-03-26T05:20:10.397Z,7.27
2019-03-26T05:22:36.794Z,6.37
2019-03-26T05:25:04.673Z,6.67
2019-03-26T05:27:44.581Z,6.90
2019-03-26T05:29:59.611Z,7.80
2019-03-26T05:32:26.089Z,7.10
2019-03-26T05:34:52.457Z,7.40
2019-03-26T05:37:19.035Z,8.27
2019-03-26T05:39:45.416Z,7.97
2019-03-26T05:42:11.776Z,8.37
2019-03-26T05:44:38.247Z,7.73
2019-03-26T05:47:04.699Z,7.87
2019-03-26T05:49:31.078Z,7.77
2019-03-26T05:51:57.422Z,7.37
2019-03-26T05:54:23.783Z,7.77
2019-03-26T05:56:50.353Z,7.60
2019-03-26T05:59:16.831Z,7.47
2019-03-26T06:01:43.175Z,8.03
2019-03-26T06:04:09.548Z,7.47
2019-03-26T06:06:35.931Z,8.03
2019-03-26T06:09:03.903Z,7.87
2019-03-26T06:11:30.356Z,8.40
2019-03-26T06:13:56.760Z,7.00
2019-03-26T06:16:23.251Z,7.30
2019-03-26T06:18:49.634Z,7.43
2019-03-26T06:23:53.861Z,7.57
2019-03-26T06:26:20.343Z,8.10
2019-03-26T06:28:46.920Z,7.80
2019-03-26T06:31:13.263Z,7.73
2019-03-26T06:33:39.648Z,7.70
2019-03-26T06:36:06.220Z,7.93
2019-03-26T06:38:34.153Z,8.63
2019-03-26T06:41:00.607Z,8.40
2019-03-26T06:43:27.200Z,9.37
2019-03-26T06:45:53.572Z,9.17
2019-03-26T06:48:19.964Z,8.93
2019-03-26T06:50:46.598Z,9.50
2019-03-26T06:53:13.103Z,8.73
2019-03-26T06:55:39.502Z,9.17
2019-03-26T06:58:05.890Z,8.33
2019-03-26T07:00:32.575Z,8.43
2019-03-26T07:02:59.799Z,8.00
2019-03-26T07:05:26.191Z,8.60
2019-03-26T07:07:52.754Z,9.13
2019-03-26T07:10:21.119Z,7.97
2019-03-26T07:12:47.675Z,8.63
2019-03-26T07:15:14.188Z,7.93
2019-03-26T07:17:40.649Z,8.23
2019-03-26T07:20:07.724Z,8.77
2019-03-26T07:22:34.125Z,7.53
2019-03-26T07:25:00.619Z,8.37
2019-03-26T07:27:27.176Z,8.40
2019-03-26T07:29:53.644Z,8.00
2019-03-26T07:32:20.022Z,7.90
2019-03-26T07:34:46.587Z,7.80
2019-03-26T07:37:13.154Z,7.53
2019-03-26T07:39:39.539Z,7.27
2019-03-26T07:42:06.002Z,7.83
2019-03-26T07:44:34.817Z,8.40
2019-03-26T07:47:01.362Z,8.07
2019-03-26T07:49:27.832Z,8.07
2019-03-26T07:51:54.287Z,8.97
2019-03-26T07:54:20.742Z,8.40
2019-03-26T07:56:47.140Z,7.57
2019-03-26T07:59:13.601Z,8.07
2019-03-26T08:01:40.095Z,9.07
2019-03-26T08:04:06.559Z,7.57
2019-03-26T08:06:33.117Z,8.00
2019-03-26T08:08:59.559Z,8.47
2019-03-26T08:11:26.136Z,8.20
2019-03-26T08:13:52.527Z,7.90
2019-03-26T08:16:19.167Z,7.67
2019-03-26T08:18:45.697Z,7.30
2019-03-26T08:21:12.175Z,7.20
2019-03-26T08:23:38.807Z,8.10
2019-03-26T08:26:05.194Z,7.33
2019-03-26T08:28:31.545Z,7.10
2019-03-26T08:30:57.912Z,7.20
2019-03-26T08:33:24.359Z,7.73
2019-03-26T08:35:50.844Z,7.07
2019-03-26T08:38:17.301Z,6.50
2019-03-26T08:40:43.768Z,7.13
2019-03-26T08:43:10.151Z,7.17
2019-03-26T08:45:36.609Z,7.37
2019-03-26T08:48:03.475Z,5.53
2019-03-26T08:50:29.931Z,4.97
2019-03-26T08:52:56.739Z,3.83
2019-03-26T08:55:23.297Z,3.33
2019-03-26T08:57:49.663Z,3.70
2019-03-26T09:00:16.314Z,3.23
2019-03-26T09:02:42.811Z,3.47
2019-03-26T09:05:09.469Z,3.90
2019-03-26T09:07:35.951Z,3.37
2019-03-26T09:10:03.613Z,3.53
2019-03-26T09:12:30.012Z,3.93
2019-03-26T09:14:56.395Z,3.67
2019-03-26T09:17:22.875Z,4.00
2019-03-26T09:19:49.437Z,3.40
2019-03-26T09:22:17.474Z,3.57
2019-03-26T09:24:44.039Z,3.20
2019-03-26T09:27:10.535Z,4.30
2019-03-26T09:29:36.926Z,3.20
2019-03-26T09:32:03.378Z,3.27
2019-03-26T09:34:29.875Z,2.73
2019-03-26T09:36:56.432Z,2.83
2019-03-26T09:39:22.925Z,3.70
2019-03-26T09:41:49.397Z,3.20
2019-03-26T09:44:15.788Z,3.73
2019-03-26T09:46:42.273Z,3.47
2019-03-26T09:49:08.722Z,3.43
2019-03-26T09:51:35.212Z,3.60
2019-03-26T09:54:01.663Z,3.43
2019-03-26T09:56:31.967Z,3.37
2019-03-26T09:58:56.704Z,3.10
2019-03-26T10:01:23.275Z,2.80
2019-03-26T10:03:49.630Z,3.83
2019-03-26T10:06:23.365Z,2.87
2019-03-26T10:08:52.204Z,3.50
2019-03-26T10:11:12.882Z,3.60
2019-03-26T10:13:39.241Z,3.13
2019-03-26T10:16:05.272Z,3.93
2019-03-26T10:18:31.730Z,3.83
2019-03-26T10:20:58.303Z,3.97
2019-03-26T10:23:24.775Z,3.87
2019-03-26T10:25:51.278Z,4.10
2019-03-26T10:28:17.724Z,3.73
2019-03-26T10:30:44.219Z,3.93
2019-03-26T10:33:10.653Z,3.80
2019-03-26T10:35:37.019Z,4.00
2019-03-26T10:38:03.696Z,3.20
2019-03-26T10:40:31.491Z,2.70
2019-03-26T10:42:58.264Z,3.80
2019-03-26T10:45:24.623Z,3.30
2019-03-26T10:47:51.148Z,3.70
2019-03-26T10:50:17.690Z,3.50
2019-03-26T10:52:44.341Z,4.03
2019-03-26T10:55:10.776Z,3.93
2019-03-26T10:57:37.339Z,3.97
2019-03-26T11:00:04.414Z,4.07
2019-03-26T11:02:30.793Z,3.67
2019-03-26T11:04:57.346Z,3.00
2019-03-26T11:07:23.841Z,3.70
2019-03-26T11:09:50.300Z,3.37
2019-03-26T11:12:16.783Z,3.77
2019-03-26T11:14:43.239Z,3.50
2019-03-26T11:17:09.779Z,3.70
2019-03-26T11:19:36.236Z,4.13
2019-03-26T11:22:02.817Z,3.73
2019-03-26T11:24:29.444Z,3.93
2019-03-26T11:26:55.976Z,4.00
2019-03-26T11:29:22.434Z,3.80
2019-03-26T11:31:48.889Z,3.77
2019-03-26T11:34:15.378Z,3.80
2019-03-26T11:36:41.852Z,3.30
2019-03-26T11:39:08.437Z,4.00
2019-03-26T11:41:35.000Z,3.33
2019-03-26T11:44:04.571Z,3.37
2019-03-26T11:46:29.837Z,3.70
2019-03-26T11:48:56.328Z,3.60
2019-03-26T11:51:22.789Z,3.50
2019-03-26T11:53:49.379Z,3.47
2019-03-26T11:56:15.836Z,3.80
2019-03-26T11:58:42.328Z,3.40
2019-03-26T12:01:08.781Z,3.10
2019-03-26T12:06:04.313Z,3.10
2019-03-26T12:08:30.769Z,3.40
2019-03-26T12:10:57.245Z,3.33
2019-03-26T12:13:23.728Z,3.00
2019-03-26T12:15:50.124Z,3.93
2019-03-26T12:18:16.615Z,3.00
2019-03-26T12:20:43.086Z,3.10
2019-03-26T12:23:09.583Z,3.63
2019-03-26T12:25:36.037Z,3.10
2019-03-26T12:28:02.724Z,3.00
2019-03-26T12:30:30.306Z,2.73
2019-03-26T12:32:56.869Z,3.50
2019-03-26T12:35:25.271Z,3.13
2019-03-26T12:37:51.845Z,2.70
2019-03-26T12:40:18.357Z,2.97
2019-03-26T12:42:44.818Z,3.40
2019-03-26T12:45:11.324Z,3.03
2019-03-26T12:47:37.688Z,2.67
2019-03-26T12:50:05.442Z,2.63
2019-03-26T12:52:31.888Z,2.57
2019-03-26T12:54:58.260Z,2.27
2019-03-26T12:57:24.626Z,3.27
2019-03-26T12:59:51.091Z,3.13
2019-03-26T13:02:17.458Z,2.47
2019-03-26T13:04:44.042Z,2.23
2019-03-26T13:07:10.497Z,2.40
2019-03-26T13:09:36.989Z,2.33
2019-03-26T13:12:03.436Z,2.77
2019-03-26T13:14:30.060Z,2.70
2019-03-26T13:16:56.561Z,3.07
2019-03-26T13:19:23.058Z,2.37
2019-03-26T13:21:49.407Z,2.80
2019-03-26T13:24:15.787Z,2.23
2019-03-26T13:26:42.179Z,2.27
2019-03-26T13:29:08.716Z,2.60
2019-03-26T13:31:35.185Z,2.70
2019-03-26T13:34:01.632Z,2.57
2019-03-26T13:36:28.105Z,2.57
2019-03-26T13:38:54.816Z,2.90
2019-03-26T13:41:21.280Z,2.50
2019-03-26T13:43:47.630Z,2.77
2019-03-26T13:46:14.096Z,2.50
2019-03-26T13:48:40.548Z,2.60
2019-03-26T13:51:07.119Z,3.60
2019-03-26T13:53:33.492Z,2.87
2019-03-26T13:55:59.962Z,2.37
2019-03-26T13:58:26.436Z,2.77
2019-03-26T14:00:52.858Z,3.00
2019-03-26T14:03:19.405Z,2.67
2019-03-26T14:05:45.824Z,2.17
2019-03-26T14:08:12.293Z,2.90
2019-03-26T14:10:41.146Z,2.50
2019-03-26T14:13:07.350Z,3.13
2019-03-26T14:15:33.839Z,2.93
2019-03-26T14:18:00.425Z,2.37
2019-03-26T14:20:26.902Z,3.17
2019-03-26T14:22:53.275Z,2.57
2019-03-26T14:25:19.770Z,2.60
2019-03-26T14:27:46.348Z,2.83
2019-03-26T14:30:13.029Z,2.60
2019-03-26T14:32:39.382Z,3.10
2019-03-26T14:35:05.956Z,3.10
2019-03-26T14:37:32.323Z,2.63
2019-03-26T14:39:58.790Z,2.63
2019-03-26T14:42:25.276Z,2.73
2019-03-26T14:44:51.732Z,3.00
2019-03-26T14:47:18.302Z,3.03
2019-03-26T14:49:44.662Z,3.30
2019-03-26T14:52:11.056Z,2.90
2019-03-26T14:54:37.412Z,3.50
2019-03-26T14:57:03.784Z,3.50
2019-03-26T14:59:30.227Z,3.70
2019-03-26T15:01:56.809Z,3.30
2019-03-26T15:04:23.264Z,3.50
2019-03-26T15:06:49.843Z,3.40
2019-03-26T15:09:16.406Z,3.57
2019-03-26T15:11:42.801Z,3.50
2019-03-26T15:14:09.259Z,3.87
2019-03-26T15:16:35.797Z,3.40
2019-03-26T15:19:02.247Z,3.60
2019-03-26T15:21:28.731Z,3.60
2019-03-26T15:23:55.185Z,3.37
2019-03-26T15:26:21.572Z,3.57
2019-03-26T15:28:48.047Z,4.13
2019-03-26T15:31:14.616Z,3.80
2019-03-26T15:33:40.975Z,3.83
2019-03-26T15:36:07.598Z,4.00
2019-03-26T15:38:33.975Z,3.50
2019-03-26T15:41:00.390Z,3.70
2019-03-26T15:43:26.968Z,4.23
2019-03-26T15:45:53.594Z,4.17
2019-03-26T15:48:20.024Z,4.13
2019-03-26T15:50:48.234Z,4.00
2019-03-26T15:53:14.700Z,4.23
2019-03-26T15:55:41.300Z,4.63
2019-03-26T15:58:07.675Z,4.33
2019-03-26T16:00:34.129Z,4.37
2019-03-26T16:03:00.606Z,4.37
2019-03-26T16:05:27.068Z,4.30
2019-03-26T16:07:53.539Z,4.90
2019-03-26T16:10:19.993Z,4.67
2019-03-26T16:12:46.401Z,5.27
2019-03-26T16:15:12.855Z,5.10
2019-03-26T16:17:39.513Z,4.80
2019-03-26T16:20:06.085Z,4.40
2019-03-26T16:22:32.473Z,4.37
2019-03-26T16:24:59.036Z,4.30
2019-03-26T16:27:25.520Z,4.73
2019-03-26T16:29:51.877Z,4.53
2019-03-26T16:32:18.756Z,5.47
2019-03-26T16:34:45.199Z,4.80
2019-03-26T16:37:11.676Z,4.53
2019-03-26T16:39:38.153Z,4.57
2019-03-26T16:42:04.533Z,4.70
2019-03-26T16:44:30.983Z,5.30
2019-03-26T16:46:57.456Z,3.90
2019-03-26T16:49:23.903Z,4.90
2019-03-26T16:51:50.351Z,4.93
2019-03-26T16:54:16.820Z,5.77
2019-03-26T16:56:43.276Z,4.77
2019-03-26T16:59:09.750Z,5.93
2019-03-26T17:01:36.202Z,6.03
2019-03-26T17:04:02.868Z,5.60
2019-03-26T17:06:29.343Z,4.50
2019-03-26T17:08:55.752Z,4.70
2019-03-26T17:11:22.257Z,5.40
2019-03-26T17:13:48.730Z,4.90
2019-03-26T17:16:15.204Z,4.80
2019-03-26T17:18:41.719Z,4.70
2019-03-26T17:21:08.170Z,5.00
2019-03-26T17:23:34.558Z,5.97
2019-03-26T17:26:01.037Z,5.73
2019-03-26T17:28:27.506Z,4.90
2019-03-26T17:30:53.971Z,5.27
2019-03-26T17:33:20.465Z,6.30
2019-03-26T17:35:46.919Z,5.13
2019-03-26T17:38:13.344Z,4.87
2019-03-26T17:40:39.749Z,5.67
2019-03-26T17:43:06.117Z,5.07
2019-03-26T17:45:32.586Z,5.00
2019-03-26T17:47:59.062Z,5.10
2019-03-26T17:50:25.532Z,5.70
2019-03-26T17:52:52.036Z,5.40
2019-03-26T17:55:18.410Z,5.60
2019-03-26T17:57:44.869Z,5.80
2019-03-26T18:00:13.351Z,4.83
2019-03-26T18:02:39.814Z,4.93
2019-03-26T18:05:08.191Z,5.60
2019-03-26T18:07:34.751Z,5.63
2019-03-26T18:10:01.240Z,5.50
2019-03-26T18:12:31.030Z,4.93
2019-03-26T18:14:56.191Z,5.77
2019-03-26T18:17:22.693Z,5.20
2019-03-26T18:19:49.063Z,5.50
2019-03-26T18:22:17.164Z,5.57
2019-03-26T18:24:45.402Z,5.70
2019-03-26T18:27:11.881Z,6.10
2019-03-26T18:29:38.259Z,6.37
2019-03-26T18:32:04.628Z,4.77
2019-03-26T18:34:31.004Z,4.80
2019-03-26T18:36:57.460Z,5.30
2019-03-26T18:39:23.845Z,5.27
2019-03-26T18:41:50.313Z,5.10
2019-03-26T18:44:16.779Z,4.73
2019-03-26T18:46:43.246Z,5.47
2019-03-26T18:49:09.729Z,5.77
2019-03-26T18:51:36.189Z,5.90
2019-03-26T18:54:02.637Z,6.60
2019-03-26T18:56:29.138Z,6.13
2019-03-26T18:58:57.346Z,5.60
2019-03-26T19:01:25.636Z,6.30
2019-03-26T19:03:52.088Z,5.67
2019-03-26T19:06:18.470Z,6.03
2019-03-26T19:08:44.938Z,5.40
2019-03-26T19:11:11.417Z,6.37
2019-03-26T19:13:37.885Z,6.63
2019-03-26T19:16:04.298Z,5.93
2019-03-26T19:18:30.810Z,6.70
2019-03-26T19:21:02.293Z,6.00
2019-03-26T19:23:25.873Z,6.00
2019-03-26T19:25:52.441Z,6.27
2019-03-26T19:28:19.123Z,6.67
2019-03-26T19:30:45.613Z,5.93
2019-03-26T19:33:12.089Z,6.53
2019-03-26T19:35:38.664Z,7.30
2019-03-26T19:38:05.020Z,7.27
2019-03-26T19:40:31.491Z,7.20
2019-03-26T19:43:10.115Z,6.90
2019-03-26T19:45:26.147Z,7.23
2019-03-26T19:47:52.522Z,6.47
2019-03-26T19:50:19.032Z,6.73
2019-03-26T19:52:45.558Z,6.70
2019-03-26T19:55:12.030Z,7.10
2019-03-26T19:57:38.412Z,6.30
2019-03-26T20:00:06.770Z,6.73
2019-03-26T20:02:33.297Z,7.83
2019-03-26T20:04:59.739Z,7.43
2019-03-26T20:07:26.215Z,7.73
2019-03-26T20:09:52.566Z,7.70
2019-03-26T20:12:19.036Z,9.33
2019-03-26T20:14:45.392Z,8.30
2019-03-26T20:17:11.918Z,8.40
2019-03-26T20:19:38.363Z,8.33
2019-03-26T20:22:04.966Z,8.17
2019-03-26T20:24:31.320Z,7.30
2019-03-26T20:26:57.827Z,7.50
2019-03-26T20:29:24.275Z,8.70
2019-03-26T20:31:50.642Z,8.40
2019-03-26T20:34:17.109Z,8.07
2019-03-26T20:36:43.525Z,8.37
2019-03-26T20:39:09.996Z,8.67
2019-03-26T20:41:36.456Z,8.03
2019-03-26T20:44:02.924Z,9.10
2019-03-26T20:46:29.503Z,8.93
2019-03-26T20:48:55.969Z,9.57
2019-03-26T20:51:22.420Z,9.70
2019-03-26T20:53:48.795Z,9.50
2019-03-26T20:56:15.265Z,9.27
2019-03-26T20:58:42.072Z,8.87
2019-03-26T21:01:08.530Z,9.47
2019-03-26T21:03:35.017Z,9.33
2019-03-26T21:06:01.567Z,9.20
2019-03-26T21:08:27.997Z,10.13
2019-03-26T21:10:54.442Z,9.23
2019-03-26T21:13:21.028Z,8.67
2019-03-26T21:15:56.981Z,10.27
2019-03-26T21:18:15.791Z,9.07
2019-03-26T21:20:42.235Z,9.40
2019-03-26T21:23:08.668Z,10.13
2019-03-26T21:25:35.044Z,10.77
2019-03-26T21:28:01.423Z,10.30
2019-03-26T21:30:27.907Z,11.53
2019-03-26T21:32:54.381Z,10.60
2019-03-26T21:35:20.832Z,9.57
2019-03-26T21:37:47.311Z,9.17
2019-03-26T21:40:13.952Z,9.77
2019-03-26T21:42:40.445Z,10.43
2019-03-26T21:45:07.987Z,9.67
2019-03-26T21:47:34.432Z,9.27
2019-03-26T21:50:01.136Z,9.67
2019-03-26T21:52:27.681Z,9.63
2019-03-26T21:54:54.163Z,10.43
2019-03-26T21:57:20.720Z,10.03
2019-03-26T21:59:47.196Z,10.10
2019-03-26T22:02:13.559Z,10.07
2019-03-26T22:04:40.031Z,9.83
2019-03-26T22:07:06.478Z,10.57
2019-03-26T22:09:32.844Z,10.70
2019-03-26T22:11:59.290Z,10.07
2019-03-26T22:14:25.677Z,9.57
2019-03-26T22:16:52.032Z,10.63
2019-03-26T22:19:27.954Z,9.37
2019-03-26T22:21:46.677Z,9.13
2019-03-26T22:24:13.181Z,10.50
2019-03-26T22:26:39.531Z,10.57
2019-03-26T22:29:06.036Z,9.77
2019-03-26T22:31:32.419Z,10.17
2019-03-26T22:33:58.782Z,10.27
2019-03-26T22:36:25.236Z,10.73
2019-03-26T22:38:51.809Z,10.70
2019-03-26T22:41:18.280Z,10.27
2019-03-26T22:43:44.850Z,10.60
2019-03-26T22:46:11.228Z,10.80
2019-03-26T22:48:37.957Z,10.77
2019-03-26T22:51:04.320Z,11.67
2019-03-26T22:53:30.682Z,10.60
2019-03-26T22:55:57.265Z,10.80
2019-03-26T22:58:23.716Z,10.63
2019-03-26T23:00:50.149Z,11.50
2019-03-26T23:03:16.483Z,11.20
2019-03-26T23:05:43.055Z,10.70
2019-03-26T23:08:09.439Z,11.37
2019-03-26T23:10:35.909Z,11.43
2019-03-26T23:13:02.369Z,11.87
2019-03-26T23:15:28.853Z,11.27
2019-03-26T23:17:55.267Z,11.60
2019-03-26T23:20:21.729Z,10.23
2019-03-26T23:22:48.074Z,11.27
2019-03-26T23:25:14.591Z,12.20
2019-03-26T23:27:41.028Z,12.10
2019-03-26T23:30:08.045Z,13.07
2019-03-26T23:32:34.415Z,11.37
2019-03-26T23:35:00.793Z,11.20
2019-03-26T23:37:27.289Z,12.20
2019-03-26T23:39:53.743Z,11.77
2019-03-26T23:42:20.342Z,11.30
2019-03-26T23:44:57.831Z,10.57
2019-03-26T23:47:15.165Z,11.73
2019-03-26T23:49:41.623Z,11.43
2019-03-26T23:52:08.118Z,11.73
2019-03-26T23:54:34.594Z,11.00
2019-03-26T23:57:01.070Z,11.47
2019-03-26T23:59:27.419Z,11.20
